createdAt,value
2023-03-22T00:02:18.185Z,10.40
2023-03-22T00:04:46.324Z,10.35
2023-03-22T00:07:14.280Z,10.33
2023-03-22T00:09:42.319Z,10.28
2023-03-22T00:12:10.390Z,10.25
2023-03-22T00:14:38.323Z,10.24
2023-03-22T00:17:06.346Z,10.21
2023-03-22T00:19:36.012Z,10.19
2023-03-22T00:22:06.380Z,10.20
2023-03-22T00:24:34.337Z,10.19
2023-03-22T00:27:02.358Z,10.17
2023-03-22T00:29:30.969Z,10.16
2023-03-22T00:31:59.169Z,10.15
2023-03-22T00:34:28.185Z,10.14
2023-03-22T00:36:57.577Z,10.11
2023-03-22T00:39:27.051Z,10.07
2023-03-22T00:41:55.033Z,9.99
2023-03-22T00:44:23.048Z,9.95
2023-03-22T00:46:51.497Z,9.89
2023-03-22T00:49:19.613Z,9.86
2023-03-22T00:51:47.715Z,9.86
2023-03-22T00:54:17.422Z,9.86
2023-03-22T00:56:46.391Z,9.84
2023-03-22T00:59:15.093Z,9.82
2023-03-22T01:01:44.920Z,9.81
2023-03-22T01:04:18.277Z,9.79
2023-03-22T01:06:47.077Z,9.74
2023-03-22T01:09:16.425Z,9.71
2023-03-22T01:11:44.925Z,9.68
2023-03-22T01:14:13.997Z,9.68
2023-03-22T01:16:42.173Z,9.68
2023-03-22T01:19:10.216Z,9.68
2023-03-22T01:21:38.206Z,9.66
2023-03-22T01:24:06.600Z,9.64
2023-03-22T01:26:36.085Z,9.61
2023-03-22T01:29:04.641Z,9.59
2023-03-22T01:31:32.866Z,9.55
2023-03-22T01:34:01.254Z,9.55
2023-03-22T01:36:29.243Z,9.50
2023-03-22T01:38:57.419Z,9.47
2023-03-22T01:41:25.944Z,9.40
2023-03-22T01:44:12.785Z,9.34
2023-03-22T01:46:41.241Z,9.27
2023-03-22T01:49:12.752Z,9.21
2023-03-22T01:51:43.689Z,9.18
2023-03-22T01:54:17.447Z,9.15
2023-03-22T01:56:46.053Z,9.13
2023-03-22T01:59:16.739Z,9.12
2023-03-22T02:01:47.130Z,9.05
2023-03-22T02:04:17.658Z,9.05
2023-03-22T02:06:47.169Z,9.07
2023-03-22T02:09:18.355Z,9.05
2023-03-22T02:11:51.429Z,9.01
2023-03-22T02:14:49.027Z,8.98
2023-03-22T02:17:32.198Z,8.95
2023-03-22T02:20:38.794Z,8.94
2023-03-22T02:23:54.810Z,8.93
2023-03-22T02:26:59.410Z,8.86
2023-03-22T02:29:39.735Z,8.81
2023-03-22T02:32:38.781Z,8.80
2023-03-22T02:35:42.236Z,8.80
2023-03-22T02:38:58.085Z,8.78
2023-03-22T02:41:38.618Z,8.76
2023-03-22T02:44:15.418Z,8.72
2023-03-22T02:46:47.983Z,8.70
2023-03-22T02:49:22.926Z,8.70
2023-03-22T02:51:58.569Z,8.66
2023-03-22T02:54:31.405Z,8.64
2023-03-22T02:57:06.589Z,8.61
2023-03-22T02:59:38.695Z,8.57
2023-03-22T03:02:08.279Z,8.52
2023-03-22T03:04:39.238Z,8.45
2023-03-22T03:07:10.296Z,8.42
2023-03-22T03:09:41.335Z,8.43
2023-03-22T03:12:15.955Z,8.39
2023-03-22T03:14:43.971Z,8.41
2023-03-22T03:17:23.589Z,8.40
2023-03-22T03:20:08.382Z,8.39
2023-03-22T03:22:51.106Z,8.36
2023-03-22T03:25:25.573Z,8.34
2023-03-22T03:28:03.653Z,8.32
2023-03-22T03:30:38.981Z,8.33
2023-03-22T03:33:10.808Z,8.34
2023-03-22T03:35:44.567Z,8.29
2023-03-22T03:38:17.524Z,8.25
2023-03-22T03:40:49.350Z,8.23
2023-03-22T03:43:20.070Z,8.23
2023-03-22T03:45:48.901Z,8.17
2023-03-22T03:48:21.403Z,8.15
2023-03-22T03:50:53.556Z,8.13
2023-03-22T03:53:21.473Z,8.12
2023-03-22T03:55:49.796Z,8.10
2023-03-22T03:58:19.412Z,8.03
2023-03-22T04:00:48.656Z,8.03
2023-03-22T04:03:16.682Z,8.02
2023-03-22T04:05:45.259Z,8.01
2023-03-22T04:08:13.347Z,8.00
2023-03-22T04:10:42.141Z,8.03
2023-03-22T04:13:10.364Z,8.00
2023-03-22T04:15:39.751Z,7.98
2023-03-22T04:18:09.754Z,8.00
2023-03-22T04:20:39.316Z,7.93
2023-03-22T04:23:07.715Z,7.88
2023-03-22T04:25:37.917Z,7.92
2023-03-22T04:28:07.535Z,7.91
2023-03-22T04:30:36.169Z,7.86
2023-03-22T04:33:07.963Z,7.84
2023-03-22T04:35:36.919Z,7.86
2023-03-22T04:38:04.863Z,7.80
2023-03-22T04:40:36.640Z,7.75
2023-03-22T04:43:04.900Z,7.71
2023-03-22T04:45:35.967Z,7.70
2023-03-22T04:48:07.876Z,7.72
2023-03-22T04:50:35.783Z,7.74
2023-03-22T04:53:03.770Z,7.75
2023-03-22T04:55:31.632Z,7.77
2023-03-22T04:57:59.823Z,7.79
2023-03-22T05:00:30.501Z,7.82
2023-03-22T05:02:58.922Z,7.88
2023-03-22T05:05:28.593Z,7.94
2023-03-22T05:07:56.913Z,7.95
2023-03-22T05:10:24.794Z,8.02
2023-03-22T05:12:53.054Z,7.99
2023-03-22T05:15:20.925Z,7.99
2023-03-22T05:17:49.284Z,7.97
2023-03-22T05:20:17.249Z,7.99
2023-03-22T05:22:50.520Z,8.02
2023-03-22T05:25:18.472Z,8.06
2023-03-22T05:27:46.541Z,8.08
2023-03-22T05:30:15.637Z,8.12
2023-03-22T05:32:44.155Z,8.16
2023-03-22T05:35:12.285Z,8.18
2023-03-22T05:37:40.778Z,8.21
2023-03-22T05:40:11.099Z,8.27
2023-03-22T05:42:39.098Z,8.30
2023-03-22T05:45:08.053Z,8.45
2023-03-22T05:47:36.196Z,8.45
2023-03-22T05:50:04.202Z,8.48
2023-03-22T05:52:32.110Z,8.45
2023-03-22T05:55:00.784Z,8.54
2023-03-22T05:57:30.527Z,8.51
2023-03-22T05:59:59.054Z,8.51
2023-03-22T06:02:27.174Z,8.52
2023-03-22T06:04:55.145Z,8.53
2023-03-22T06:07:23.356Z,8.54
2023-03-22T06:09:51.265Z,8.54
2023-03-22T06:12:22.698Z,8.56
2023-03-22T06:14:52.175Z,8.57
2023-03-22T06:17:20.268Z,8.68
2023-03-22T06:19:48.600Z,8.64
2023-03-22T06:22:16.811Z,8.67
2023-03-22T06:24:45.612Z,8.82
2023-03-22T06:27:14.248Z,8.77
2023-03-22T06:29:42.281Z,8.85
2023-03-22T06:32:12.147Z,8.83
2023-03-22T06:34:40.237Z,8.84
2023-03-22T06:37:08.584Z,8.85
2023-03-22T06:39:36.467Z,8.87
2023-03-22T06:42:04.795Z,8.90
2023-03-22T06:44:32.720Z,8.92
2023-03-22T06:47:00.737Z,8.96
2023-03-22T06:49:31.510Z,8.98
2023-03-22T06:51:59.449Z,9.06
2023-03-22T06:54:27.807Z,9.13
2023-03-22T06:56:55.734Z,9.20
2023-03-22T06:59:24.044Z,9.28
2023-03-22T07:01:52.319Z,9.38
2023-03-22T07:04:20.511Z,9.48
2023-03-22T07:06:50.053Z,9.60
2023-03-22T07:09:18.354Z,9.74
2023-03-22T07:11:46.351Z,9.91
2023-03-22T07:14:14.432Z,10.15
2023-03-22T07:16:42.398Z,10.38
2023-03-22T07:19:10.509Z,10.62
2023-03-22T07:21:38.773Z,10.86
2023-03-22T07:24:09.172Z,11.10
2023-03-22T07:26:39.109Z,11.32
2023-03-22T07:29:07.460Z,11.57
2023-03-22T07:31:36.758Z,11.77
2023-03-22T07:34:05.299Z,11.94
2023-03-22T07:36:33.777Z,12.08
2023-03-22T07:39:01.733Z,12.27
2023-03-22T07:41:40.314Z,12.45
2023-03-22T07:44:26.128Z,12.60
2023-03-22T07:46:54.032Z,12.73
2023-03-22T07:49:22.202Z,12.91
2023-03-22T07:51:50.137Z,13.04
2023-03-22T07:54:32.446Z,13.24
2023-03-22T07:57:03.087Z,13.43
2023-03-22T07:59:31.278Z,13.58
2023-03-22T08:01:59.286Z,13.72
2023-03-22T08:04:27.867Z,13.81
2023-03-22T08:06:58.626Z,13.99
2023-03-22T08:09:27.285Z,14.04
2023-03-22T08:11:55.575Z,14.17
2023-03-22T08:14:35.664Z,14.25
2023-03-22T08:17:04.965Z,14.41
2023-03-22T08:19:33.783Z,14.53
2023-03-22T08:22:02.045Z,14.70
2023-03-22T08:24:30.295Z,14.76
2023-03-22T08:26:58.337Z,14.89
2023-03-22T08:29:27.772Z,14.95
2023-03-22T08:31:56.131Z,15.04
2023-03-22T08:34:24.419Z,15.20
2023-03-22T08:36:52.492Z,15.31
2023-03-22T08:39:21.478Z,15.33
2023-03-22T08:41:49.480Z,15.49
2023-03-22T08:44:17.712Z,15.59
2023-03-22T08:46:47.315Z,15.62
2023-03-22T08:49:16.756Z,15.67
2023-03-22T08:51:45.135Z,15.73
2023-03-22T08:54:13.681Z,15.73
2023-03-22T08:56:41.853Z,15.84
2023-03-22T08:59:10.911Z,15.91
2023-03-22T09:01:39.044Z,15.97
2023-03-22T09:04:10.726Z,16.06
2023-03-22T09:06:43.129Z,16.20
2023-03-22T09:09:11.132Z,16.21
2023-03-22T09:11:41.302Z,16.36
2023-03-22T09:14:09.732Z,16.44
2023-03-22T09:16:37.981Z,16.56
2023-03-22T09:19:06.654Z,16.57
2023-03-22T09:21:36.530Z,16.68
2023-03-22T09:24:04.503Z,16.70
2023-03-22T09:26:32.780Z,16.76
2023-03-22T09:29:01.097Z,16.84
2023-03-22T09:31:29.267Z,16.92
2023-03-22T09:33:57.562Z,17.04
2023-03-22T09:36:25.657Z,16.99
2023-03-22T09:38:54.972Z,17.11
2023-03-22T09:41:26.427Z,17.17
2023-03-22T09:43:58.294Z,17.19
2023-03-22T09:46:32.586Z,17.25
2023-03-22T09:49:03.012Z,17.27
2023-03-22T09:51:39.863Z,17.36
2023-03-22T09:54:15.583Z,17.38
2023-03-22T09:56:46.051Z,17.45
2023-03-22T09:59:19.269Z,17.56
2023-03-22T10:01:52.907Z,17.60
2023-03-22T10:04:43.498Z,17.68
2023-03-22T10:07:22.335Z,17.62
2023-03-22T10:10:00.658Z,17.69
2023-03-22T10:12:32.853Z,17.88
2023-03-22T10:15:06.869Z,17.84
2023-03-22T10:17:37.578Z,17.99
2023-03-22T10:20:09.685Z,18.09
2023-03-22T10:22:41.948Z,18.24
2023-03-22T10:25:18.315Z,18.31
2023-03-22T10:27:49.892Z,18.34
2023-03-22T10:30:22.047Z,18.32
2023-03-22T10:32:58.379Z,18.15
2023-03-22T10:35:27.116Z,18.05
2023-03-22T10:37:57.262Z,17.97
2023-03-22T10:40:29.863Z,18.00
2023-03-22T10:43:02.221Z,18.02
2023-03-22T10:45:33.069Z,18.04
2023-03-22T10:48:05.361Z,18.01
2023-03-22T10:50:36.648Z,18.15
2023-03-22T10:53:12.866Z,18.30
2023-03-22T10:55:43.619Z,18.45
2023-03-22T10:58:16.931Z,18.70
2023-03-22T11:00:47.190Z,18.80
2023-03-22T11:03:28.762Z,19.00
2023-03-22T11:06:01.969Z,19.15
2023-03-22T11:08:30.028Z,19.27
2023-03-22T11:11:00.371Z,19.40
2023-03-22T11:13:29.498Z,19.45
2023-03-22T11:16:02.907Z,19.55
2023-03-22T11:18:32.946Z,19.65
2023-03-22T11:21:05.932Z,19.58
2023-03-22T11:23:35.648Z,19.66
2023-03-22T11:26:10.223Z,19.35
2023-03-22T11:28:48.709Z,19.07
2023-03-22T11:31:18.687Z,19.03
2023-03-22T11:33:56.800Z,19.09
2023-03-22T11:36:25.452Z,19.24
2023-03-22T11:38:59.156Z,19.37
2023-03-22T11:41:31.221Z,19.56
2023-03-22T11:44:03.102Z,19.47
2023-03-22T11:46:32.371Z,19.42
2023-03-22T11:49:04.281Z,19.39
2023-03-22T11:51:36.140Z,19.46
2023-03-22T11:54:09.195Z,19.48
2023-03-22T11:56:44.250Z,19.69
2023-03-22T11:59:16.676Z,19.94
2023-03-22T12:01:52.224Z,19.78
2023-03-22T12:04:25.636Z,19.75
2023-03-22T12:06:56.634Z,19.72
2023-03-22T12:09:30.110Z,19.85
2023-03-22T12:12:03.115Z,19.89
2023-03-22T12:14:36.051Z,19.95
2023-03-22T12:17:09.104Z,20.20
2023-03-22T12:19:51.218Z,20.46
2023-03-22T12:22:22.983Z,20.45
2023-03-22T12:24:50.964Z,20.33
2023-03-22T12:27:24.255Z,20.22
2023-03-22T12:29:58.322Z,19.99
2023-03-22T12:32:29.947Z,20.14
2023-03-22T12:35:14.108Z,20.24
2023-03-22T12:37:48.852Z,20.21
2023-03-22T12:40:24.029Z,20.25
2023-03-22T12:43:00.674Z,20.21
2023-03-22T12:45:33.356Z,20.07
2023-03-22T12:48:07.618Z,19.87
2023-03-22T12:50:40.485Z,19.81
2023-03-22T12:53:12.776Z,19.80
2023-03-22T12:55:42.787Z,19.88
2023-03-22T12:58:22.746Z,19.99
2023-03-22T13:00:56.236Z,20.14
2023-03-22T13:03:28.925Z,20.15
2023-03-22T13:06:06.507Z,20.09
2023-03-22T13:09:16.153Z,20.06
2023-03-22T13:11:46.371Z,19.95
2023-03-22T13:14:57.711Z,19.95
2023-03-22T13:17:45.164Z,19.94
2023-03-22T13:20:31.614Z,19.86
2023-03-22T13:23:06.291Z,19.85
2023-03-22T13:25:38.459Z,19.79
2023-03-22T13:28:24.727Z,19.85
2023-03-22T13:30:55.930Z,19.87
2023-03-22T13:33:28.243Z,20.05
2023-03-22T13:35:59.094Z,20.15
2023-03-22T13:38:29.262Z,20.13
2023-03-22T13:41:05.988Z,20.00
2023-03-22T13:43:36.883Z,19.76
2023-03-22T13:46:30.294Z,19.52
2023-03-22T13:49:18.255Z,19.62
2023-03-22T13:51:46.686Z,19.67
2023-03-22T13:54:24.042Z,19.90
2023-03-22T13:57:00.823Z,20.18
2023-03-22T13:59:33.988Z,20.26
2023-03-22T14:02:18.504Z,20.27
2023-03-22T14:04:50.235Z,20.31
2023-03-22T14:07:25.209Z,20.46
2023-03-22T14:09:57.169Z,20.47
2023-03-22T14:12:32.406Z,20.64
2023-03-22T14:15:05.171Z,20.58
2023-03-22T14:17:43.131Z,20.60
2023-03-22T14:20:16.396Z,20.70
